sensor_id;sensor_type;location;lat;lon;timestamp;P1;durP1;ratioP1;P2;durP2;ratioP2
62475;SDS011;50739;45.670;11.936;2024-03-06T00:02:16;6.40;;;2.95;;
62475;SDS011;50739;45.670;11.936;2024-03-06T00:07:20;6.38;;;2.83;;
62475;SDS011;50739;45.670;11.936;2024-03-06T00:12:25;5.10;;;2.60;;
62475;SDS011;50739;45.670;11.936;2024-03-06T00:23:44;6.82;;;2.30;;
62475;SDS011;50739;45.670;11.936;2024-03-06T00:28:47;6.13;;;2.42;;
62475;SDS011;50739;45.670;11.936;2024-03-06T00:33:50;3.42;;;2.03;;
62475;SDS011;50739;45.670;11.936;2024-03-06T00:38:53;7.60;;;2.00;;
62475;SDS011;50739;45.670;11.936;2024-03-06T00:43:56;4.55;;;1.95;;
62475;SDS011;50739;45.670;11.936;2024-03-06T00:48:58;4.17;;;2.23;;
62475;SDS011;50739;45.670;11.936;2024-03-06T00:54:02;4.73;;;1.80;;
62475;SDS011;50739;45.670;11.936;2024-03-06T00:59:05;4.90;;;1.97;;
62475;SDS011;50739;45.670;11.936;2024-03-06T01:04:07;6.18;;;1.75;;
62475;SDS011;50739;45.670;11.936;2024-03-06T01:09:11;2.67;;;1.58;;
62475;SDS011;50739;45.670;11.936;2024-03-06T01:14:13;5.37;;;2.10;;
62475;SDS011;50739;45.670;11.936;2024-03-06T01:19:17;3.95;;;1.80;;
62475;SDS011;50739;45.670;11.936;2024-03-06T01:24:20;5.80;;;1.85;;
62475;SDS011;50739;45.670;11.936;2024-03-06T01:29:23;6.93;;;1.73;;
62475;SDS011;50739;45.670;11.936;2024-03-06T01:34:25;5.40;;;1.80;;
62475;SDS011;50739;45.670;11.936;2024-03-06T01:39:29;4.68;;;1.95;;
62475;SDS011;50739;45.670;11.936;2024-03-06T01:44:31;4.67;;;2.10;;
62475;SDS011;50739;45.670;11.936;2024-03-06T01:49:34;4.70;;;2.33;;
62475;SDS011;50739;45.670;11.936;2024-03-06T01:54:38;3.53;;;1.52;;
62475;SDS011;50739;45.670;11.936;2024-03-06T01:59:40;6.82;;;2.00;;
62475;SDS011;50739;45.670;11.936;2024-03-06T02:04:44;5.38;;;2.10;;
62475;SDS011;50739;45.670;11.936;2024-03-06T02:09:47;5.32;;;2.28;;
62475;SDS011;50739;45.670;11.936;2024-03-06T02:14:50;5.53;;;2.30;;
62475;SDS011;50739;45.670;11.936;2024-03-06T02:19:53;7.00;;;2.92;;
62475;SDS011;50739;45.670;11.936;2024-03-06T02:24:56;4.18;;;2.00;;
62475;SDS011;50739;45.670;11.936;2024-03-06T02:29:59;4.55;;;2.28;;
62475;SDS011;50739;45.670;11.936;2024-03-06T02:35:01;6.53;;;2.27;;
62475;SDS011;50739;45.670;11.936;2024-03-06T02:40:10;4.50;;;2.35;;
62475;SDS011;50739;45.670;11.936;2024-03-06T02:45:12;7.30;;;2.45;;
62475;SDS011;50739;45.670;11.936;2024-03-06T02:50:15;6.33;;;2.67;;
62475;SDS011;50739;45.670;11.936;2024-03-06T02:55:19;9.20;;;3.35;;
62475;SDS011;50739;45.670;11.936;2024-03-06T03:00:21;6.38;;;2.88;;
62475;SDS011;50739;45.670;11.936;2024-03-06T03:05:24;7.25;;;3.05;;
62475;SDS011;50739;45.670;11.936;2024-03-06T03:10:27;6.87;;;3.00;;
62475;SDS011;50739;45.670;11.936;2024-03-06T03:15:30;5.80;;;2.95;;
62475;SDS011;50739;45.670;11.936;2024-03-06T03:20:33;7.65;;;3.17;;
62475;SDS011;50739;45.670;11.936;2024-03-06T03:25:38;9.90;;;3.10;;
62475;SDS011;50739;45.670;11.936;2024-03-06T03:30:43;8.55;;;3.17;;
62475;SDS011;50739;45.670;11.936;2024-03-06T03:35:46;5.70;;;2.80;;
62475;SDS011;50739;45.670;11.936;2024-03-06T03:40:50;6.65;;;2.92;;
62475;SDS011;50739;45.670;11.936;2024-03-06T03:45:55;5.28;;;2.88;;
62475;SDS011;50739;45.670;11.936;2024-03-06T03:50:57;7.53;;;2.97;;
62475;SDS011;50739;45.670;11.936;2024-03-06T03:56:01;9.07;;;3.15;;
62475;SDS011;50739;45.670;11.936;2024-03-06T04:01:04;6.55;;;3.38;;
62475;SDS011;50739;45.670;11.936;2024-03-06T04:06:07;8.25;;;3.20;;
62475;SDS011;50739;45.670;11.936;2024-03-06T04:11:10;7.72;;;3.20;;
62475;SDS011;50739;45.670;11.936;2024-03-06T04:16:15;7.85;;;3.13;;
62475;SDS011;50739;45.670;11.936;2024-03-06T04:21:18;4.32;;;2.97;;
62475;SDS011;50739;45.670;11.936;2024-03-06T04:26:22;7.97;;;3.13;;
62475;SDS011;50739;45.670;11.936;2024-03-06T04:31:25;7.95;;;3.60;;
62475;SDS011;50739;45.670;11.936;2024-03-06T04:36:27;7.03;;;3.15;;
62475;SDS011;50739;45.670;11.936;2024-03-06T04:41:31;8.13;;;3.77;;
62475;SDS011;50739;45.670;11.936;2024-03-06T04:46:33;7.53;;;3.60;;
62475;SDS011;50739;45.670;11.936;2024-03-06T04:51:35;6.95;;;3.38;;
62475;SDS011;50739;45.670;11.936;2024-03-06T04:56:40;10.13;;;3.80;;
62475;SDS011;50739;45.670;11.936;2024-03-06T05:01:42;7.53;;;4.18;;
62475;SDS011;50739;45.670;11.936;2024-03-06T05:06:45;7.97;;;4.93;;
62475;SDS011;50739;45.670;11.936;2024-03-06T05:11:49;10.27;;;4.18;;
62475;SDS011;50739;45.670;11.936;2024-03-06T05:16:51;10.40;;;4.63;;
62475;SDS011;50739;45.670;11.936;2024-03-06T05:21:54;7.68;;;4.43;;
62475;SDS011;50739;45.670;11.936;2024-03-06T05:26:58;10.27;;;5.18;;
62475;SDS011;50739;45.670;11.936;2024-03-06T05:32:01;8.63;;;4.87;;
62475;SDS011;50739;45.670;11.936;2024-03-06T05:37:04;8.00;;;4.32;;
62475;SDS011;50739;45.670;11.936;2024-03-06T05:42:08;6.75;;;4.47;;
62475;SDS011;50739;45.670;11.936;2024-03-06T05:47:10;9.50;;;4.57;;
62475;SDS011;50739;45.670;11.936;2024-03-06T05:52:13;10.10;;;4.20;;
62475;SDS011;50739;45.670;11.936;2024-03-06T05:57:17;8.35;;;4.70;;
62475;SDS011;50739;45.670;11.936;2024-03-06T06:02:19;7.07;;;4.27;;
62475;SDS011;50739;45.670;11.936;2024-03-06T06:07:24;8.75;;;4.40;;
62475;SDS011;50739;45.670;11.936;2024-03-06T06:12:27;8.68;;;4.20;;
62475;SDS011;50739;45.670;11.936;2024-03-06T06:17:30;9.80;;;4.60;;
62475;SDS011;50739;45.670;11.936;2024-03-06T06:22:32;8.98;;;4.38;;
62475;SDS011;50739;45.670;11.936;2024-03-06T06:27:36;9.88;;;4.60;;
62475;SDS011;50739;45.670;11.936;2024-03-06T06:32:39;7.72;;;4.50;;
62475;SDS011;50739;45.670;11.936;2024-03-06T06:37:41;8.88;;;4.88;;
62475;SDS011;50739;45.670;11.936;2024-03-06T06:42:45;8.52;;;4.30;;
62475;SDS011;50739;45.670;11.936;2024-03-06T06:47:51;7.22;;;3.78;;
62475;SDS011;50739;45.670;11.936;2024-03-06T06:52:53;7.20;;;4.00;;
62475;SDS011;50739;45.670;11.936;2024-03-06T06:57:57;7.13;;;3.42;;
62475;SDS011;50739;45.670;11.936;2024-03-06T07:03:02;7.78;;;3.33;;
62475;SDS011;50739;45.670;11.936;2024-03-06T07:08:05;7.23;;;3.30;;
62475;SDS011;50739;45.670;11.936;2024-03-06T07:13:09;5.38;;;3.35;;
62475;SDS011;50739;45.670;11.936;2024-03-06T07:18:12;9.25;;;4.88;;
62475;SDS011;50739;45.670;11.936;2024-03-06T07:23:14;6.80;;;3.60;;
62475;SDS011;50739;45.670;11.936;2024-03-06T07:28:18;6.53;;;3.22;;
62475;SDS011;50739;45.670;11.936;2024-03-06T07:33:21;7.30;;;2.90;;
62475;SDS011;50739;45.670;11.936;2024-03-06T07:38:23;4.40;;;2.30;;
62475;SDS011;50739;45.670;11.936;2024-03-06T07:43:27;5.05;;;2.55;;
62475;SDS011;50739;45.670;11.936;2024-03-06T07:48:30;5.30;;;2.30;;
62475;SDS011;50739;45.670;11.936;2024-03-06T07:53:35;4.70;;;2.40;;
62475;SDS011;50739;45.670;11.936;2024-03-06T07:58:39;4.13;;;2.40;;
62475;SDS011;50739;45.670;11.936;2024-03-06T08:03:41;3.90;;;2.33;;
62475;SDS011;50739;45.670;11.936;2024-03-06T08:08:44;4.53;;;2.40;;
62475;SDS011;50739;45.670;11.936;2024-03-06T08:13:49;4.03;;;2.10;;
62475;SDS011;50739;45.670;11.936;2024-03-06T08:18:51;7.05;;;2.03;;
62475;SDS011;50739;45.670;11.936;2024-03-06T08:23:54;4.13;;;1.95;;
62475;SDS011;50739;45.670;11.936;2024-03-06T08:28:57;2.67;;;1.65;;
62475;SDS011;50739;45.670;11.936;2024-03-06T08:34:00;3.47;;;1.60;;
62475;SDS011;50739;45.670;11.936;2024-03-06T08:39:02;4.25;;;2.33;;
62475;SDS011;50739;45.670;11.936;2024-03-06T08:44:07;2.72;;;2.00;;
62475;SDS011;50739;45.670;11.936;2024-03-06T08:49:09;4.30;;;1.80;;
62475;SDS011;50739;45.670;11.936;2024-03-06T08:54:12;3.15;;;2.30;;
62475;SDS011;50739;45.670;11.936;2024-03-06T08:59:16;2.75;;;1.63;;
62475;SDS011;50739;45.670;11.936;2024-03-06T09:04:18;4.70;;;2.10;;
62475;SDS011;50739;45.670;11.936;2024-03-06T09:09:21;3.33;;;2.00;;
62475;SDS011;50739;45.670;11.936;2024-03-06T09:14:24;4.95;;;2.45;;
62475;SDS011;50739;45.670;11.936;2024-03-06T09:19:27;4.55;;;2.50;;
62475;SDS011;50739;45.670;11.936;2024-03-06T09:24:30;6.32;;;2.70;;
62475;SDS011;50739;45.670;11.936;2024-03-06T09:29:34;5.60;;;2.85;;
62475;SDS011;50739;45.670;11.936;2024-03-06T09:34:36;5.60;;;2.87;;
62475;SDS011;50739;45.670;11.936;2024-03-06T09:39:39;6.37;;;3.80;;
62475;SDS011;50739;45.670;11.936;2024-03-06T09:44:43;8.30;;;3.87;;
62475;SDS011;50739;45.670;11.936;2024-03-06T09:49:46;7.40;;;4.00;;
62475;SDS011;50739;45.670;11.936;2024-03-06T09:54:48;7.75;;;4.10;;
62475;SDS011;50739;45.670;11.936;2024-03-06T09:59:54;7.77;;;4.20;;
62475;SDS011;50739;45.670;11.936;2024-03-06T10:04:56;8.30;;;4.43;;
62475;SDS011;50739;45.670;11.936;2024-03-06T10:09:59;8.32;;;3.92;;
62475;SDS011;50739;45.670;11.936;2024-03-06T10:15:03;6.57;;;3.80;;
62475;SDS011;50739;45.670;11.936;2024-03-06T10:20:16;8.53;;;3.60;;
62475;SDS011;50739;45.670;11.936;2024-03-06T10:25:20;7.63;;;4.00;;
62475;SDS011;50739;45.670;11.936;2024-03-06T10:30:25;5.10;;;3.50;;
62475;SDS011;50739;45.670;11.936;2024-03-06T10:35:28;7.13;;;3.45;;
62475;SDS011;50739;45.670;11.936;2024-03-06T10:40:31;6.10;;;3.13;;
62475;SDS011;50739;45.670;11.936;2024-03-06T10:45:40;4.43;;;2.83;;
62475;SDS011;50739;45.670;11.936;2024-03-06T10:50:45;5.40;;;3.00;;
62475;SDS011;50739;45.670;11.936;2024-03-06T10:55:48;4.50;;;2.97;;
62475;SDS011;50739;45.670;11.936;2024-03-06T11:00:53;4.50;;;2.77;;
62475;SDS011;50739;45.670;11.936;2024-03-06T11:05:58;6.78;;;2.67;;
62475;SDS011;50739;45.670;11.936;2024-03-06T11:11:19;3.77;;;2.57;;
62475;SDS011;50739;45.670;11.936;2024-03-06T11:16:28;3.88;;;2.80;;
62475;SDS011;50739;45.670;11.936;2024-03-06T11:21:34;5.23;;;2.80;;
62475;SDS011;50739;45.670;11.936;2024-03-06T11:26:36;4.13;;;2.60;;
62475;SDS011;50739;45.670;11.936;2024-03-06T11:31:40;4.28;;;2.20;;
62475;SDS011;50739;45.670;11.936;2024-03-06T11:37:12;5.43;;;2.33;;
62475;SDS011;50739;45.670;11.936;2024-03-06T11:42:14;4.20;;;2.30;;
62475;SDS011;50739;45.670;11.936;2024-03-06T11:47:18;4.68;;;2.13;;
62475;SDS011;50739;45.670;11.936;2024-03-06T11:52:21;3.72;;;2.10;;
62475;SDS011;50739;45.670;11.936;2024-03-06T11:57:24;4.60;;;2.13;;
62475;SDS011;50739;45.670;11.936;2024-03-06T12:02:27;3.70;;;2.47;;
62475;SDS011;50739;45.670;11.936;2024-03-06T12:07:30;3.50;;;2.13;;
62475;SDS011;50739;45.670;11.936;2024-03-06T12:12:34;4.72;;;2.10;;
62475;SDS011;50739;45.670;11.936;2024-03-06T12:17:43;3.13;;;2.33;;
62475;SDS011;50739;45.670;11.936;2024-03-06T12:22:48;4.60;;;2.45;;
62475;SDS011;50739;45.670;11.936;2024-03-06T12:27:53;3.65;;;2.30;;
62475;SDS011;50739;45.670;11.936;2024-03-06T12:32:57;7.03;;;3.30;;
62475;SDS011;50739;45.670;11.936;2024-03-06T12:38:00;6.38;;;3.65;;
62475;SDS011;50739;45.670;11.936;2024-03-06T12:43:14;4.60;;;3.20;;
62475;SDS011;50739;45.670;11.936;2024-03-06T12:48:18;7.22;;;3.85;;
62475;SDS011;50739;45.670;11.936;2024-03-06T12:53:21;6.32;;;3.17;;
62475;SDS011;50739;45.670;11.936;2024-03-06T12:58:23;4.03;;;3.00;;
62475;SDS011;50739;45.670;11.936;2024-03-06T13:03:27;3.93;;;2.50;;
62475;SDS011;50739;45.670;11.936;2024-03-06T13:08:30;4.60;;;2.70;;
62475;SDS011;50739;45.670;11.936;2024-03-06T13:13:32;3.75;;;2.60;;
62475;SDS011;50739;45.670;11.936;2024-03-06T13:18:36;3.43;;;2.70;;
62475;SDS011;50739;45.670;11.936;2024-03-06T13:23:39;5.97;;;2.55;;
62475;SDS011;50739;45.670;11.936;2024-03-06T13:28:41;3.95;;;2.40;;
62475;SDS011;50739;45.670;11.936;2024-03-06T13:33:45;4.60;;;2.58;;
62475;SDS011;50739;45.670;11.936;2024-03-06T13:38:49;3.10;;;2.30;;
62475;SDS011;50739;45.670;11.936;2024-03-06T13:43:52;5.00;;;2.30;;
62475;SDS011;50739;45.670;11.936;2024-03-06T13:48:55;4.43;;;2.38;;
62475;SDS011;50739;45.670;11.936;2024-03-06T13:53:58;6.00;;;2.42;;
62475;SDS011;50739;45.670;11.936;2024-03-06T13:59:01;5.47;;;2.60;;
62475;SDS011;50739;45.670;11.936;2024-03-06T14:04:04;3.97;;;2.40;;
62475;SDS011;50739;45.670;11.936;2024-03-06T14:09:07;2.57;;;1.70;;
62475;SDS011;50739;45.670;11.936;2024-03-06T14:14:09;2.08;;;1.58;;
62475;SDS011;50739;45.670;11.936;2024-03-06T14:19:13;2.10;;;1.70;;
62475;SDS011;50739;45.670;11.936;2024-03-06T14:24:16;3.22;;;1.90;;
62475;SDS011;50739;45.670;11.936;2024-03-06T14:29:19;2.67;;;1.92;;
62475;SDS011;50739;45.670;11.936;2024-03-06T14:34:23;4.25;;;2.30;;
62475;SDS011;50739;45.670;11.936;2024-03-06T14:39:25;3.20;;;1.85;;
62475;SDS011;50739;45.670;11.936;2024-03-06T14:44:28;2.70;;;1.90;;
62475;SDS011;50739;45.670;11.936;2024-03-06T14:49:32;3.13;;;2.20;;
62475;SDS011;50739;45.670;11.936;2024-03-06T14:54:35;3.03;;;1.80;;
62475;SDS011;50739;45.670;11.936;2024-03-06T14:59:38;4.25;;;2.15;;
62475;SDS011;50739;45.670;11.936;2024-03-06T15:04:41;1.83;;;1.15;;
62475;SDS011;50739;45.670;11.936;2024-03-06T15:09:44;2.42;;;1.20;;
62475;SDS011;50739;45.670;11.936;2024-03-06T15:14:46;1.60;;;1.03;;
62475;SDS011;50739;45.670;11.936;2024-03-06T15:19:50;4.30;;;1.30;;
62475;SDS011;50739;45.670;11.936;2024-03-06T15:24:57;1.10;;;0.97;;
62475;SDS011;50739;45.670;11.936;2024-03-06T15:30:00;2.87;;;1.77;;
62475;SDS011;50739;45.670;11.936;2024-03-06T15:35:04;3.10;;;2.50;;
62475;SDS011;50739;45.670;11.936;2024-03-06T15:40:09;2.25;;;1.40;;
62475;SDS011;50739;45.670;11.936;2024-03-06T15:45:11;2.40;;;1.30;;
62475;SDS011;50739;45.670;11.936;2024-03-06T15:50:15;1.30;;;0.90;;
62475;SDS011;50739;45.670;11.936;2024-03-06T15:55:18;1.90;;;1.33;;
62475;SDS011;50739;45.670;11.936;2024-03-06T16:00:20;2.28;;;1.10;;
62475;SDS011;50739;45.670;11.936;2024-03-06T16:05:24;2.65;;;1.08;;
62475;SDS011;50739;45.670;11.936;2024-03-06T16:10:27;2.83;;;0.90;;
62475;SDS011;50739;45.670;11.936;2024-03-06T16:15:29;1.35;;;0.90;;
62475;SDS011;50739;45.670;11.936;2024-03-06T16:20:33;1.38;;;0.90;;
62475;SDS011;50739;45.670;11.936;2024-03-06T16:25:36;1.42;;;0.88;;
62475;SDS011;50739;45.670;11.936;2024-03-06T16:30:38;2.15;;;1.25;;
62475;SDS011;50739;45.670;11.936;2024-03-06T16:35:42;3.60;;;1.48;;
62475;SDS011;50739;45.670;11.936;2024-03-06T16:40:45;2.90;;;1.67;;
62475;SDS011;50739;45.670;11.936;2024-03-06T16:45:48;3.28;;;1.42;;
62475;SDS011;50739;45.670;11.936;2024-03-06T16:50:52;2.70;;;1.40;;
62475;SDS011;50739;45.670;11.936;2024-03-06T16:55:54;1.80;;;1.30;;
62475;SDS011;50739;45.670;11.936;2024-03-06T17:00:57;3.40;;;1.33;;
62475;SDS011;50739;45.670;11.936;2024-03-06T17:06:04;2.33;;;1.50;;
62475;SDS011;50739;45.670;11.936;2024-03-06T17:11:07;2.33;;;1.50;;
62475;SDS011;50739;45.670;11.936;2024-03-06T17:16:10;3.45;;;1.83;;
62475;SDS011;50739;45.670;11.936;2024-03-06T17:21:15;2.83;;;1.67;;
62475;SDS011;50739;45.670;11.936;2024-03-06T17:26:17;6.57;;;2.13;;
62475;SDS011;50739;45.670;11.936;2024-03-06T17:31:19;4.28;;;2.30;;
62475;SDS011;50739;45.670;11.936;2024-03-06T17:36:23;4.28;;;2.65;;
62475;SDS011;50739;45.670;11.936;2024-03-06T17:41:26;6.55;;;3.25;;
62475;SDS011;50739;45.670;11.936;2024-03-06T17:46:29;8.17;;;5.17;;
62475;SDS011;50739;45.670;11.936;2024-03-06T17:51:33;5.70;;;3.47;;
62475;SDS011;50739;45.670;11.936;2024-03-06T17:56:36;5.20;;;3.87;;
62475;SDS011;50739;45.670;11.936;2024-03-06T18:01:39;7.17;;;3.83;;
62475;SDS011;50739;45.670;11.936;2024-03-06T18:06:43;5.80;;;4.25;;
62475;SDS011;50739;45.670;11.936;2024-03-06T18:11:45;4.15;;;3.25;;
62475;SDS011;50739;45.670;11.936;2024-03-06T18:16:48;5.72;;;3.47;;
62475;SDS011;50739;45.670;11.936;2024-03-06T18:21:52;6.60;;;3.40;;
62475;SDS011;50739;45.670;11.936;2024-03-06T18:26:54;6.40;;;3.83;;
62475;SDS011;50739;45.670;11.936;2024-03-06T18:31:59;6.05;;;3.45;;
62475;SDS011;50739;45.670;11.936;2024-03-06T18:37:03;10.35;;;4.53;;
62475;SDS011;50739;45.670;11.936;2024-03-06T18:42:05;8.52;;;4.93;;
62475;SDS011;50739;45.670;11.936;2024-03-06T18:47:08;10.23;;;6.15;;
62475;SDS011;50739;45.670;11.936;2024-03-06T18:52:12;10.20;;;6.25;;
62475;SDS011;50739;45.670;11.936;2024-03-06T18:57:14;13.33;;;6.63;;
62475;SDS011;50739;45.670;11.936;2024-03-06T19:02:17;9.17;;;5.83;;
62475;SDS011;50739;45.670;11.936;2024-03-06T19:07:21;11.57;;;6.10;;
62475;SDS011;50739;45.670;11.936;2024-03-06T19:12:23;10.75;;;6.15;;
62475;SDS011;50739;45.670;11.936;2024-03-06T19:17:27;8.13;;;6.00;;
62475;SDS011;50739;45.670;11.936;2024-03-06T19:22:30;7.73;;;5.50;;
62475;SDS011;50739;45.670;11.936;2024-03-06T19:27:33;10.75;;;6.20;;
62475;SDS011;50739;45.670;11.936;2024-03-06T19:32:38;10.43;;;6.90;;
62475;SDS011;50739;45.670;11.936;2024-03-06T19:37:42;13.00;;;9.00;;
62475;SDS011;50739;45.670;11.936;2024-03-06T19:42:45;15.80;;;9.68;;
62475;SDS011;50739;45.670;11.936;2024-03-06T19:47:47;16.92;;;10.13;;
62475;SDS011;50739;45.670;11.936;2024-03-06T19:52:51;13.30;;;8.32;;
62475;SDS011;50739;45.670;11.936;2024-03-06T19:57:54;11.90;;;8.20;;
62475;SDS011;50739;45.670;11.936;2024-03-06T20:02:56;12.07;;;8.13;;
62475;SDS011;50739;45.670;11.936;2024-03-06T20:08:00;10.07;;;7.77;;
62475;SDS011;50739;45.670;11.936;2024-03-06T20:13:03;13.02;;;8.60;;
62475;SDS011;50739;45.670;11.936;2024-03-06T20:18:06;31.88;;;13.82;;
62475;SDS011;50739;45.670;11.936;2024-03-06T20:23:10;28.83;;;13.20;;
62475;SDS011;50739;45.670;11.936;2024-03-06T20:28:12;15.53;;;9.37;;
62475;SDS011;50739;45.670;11.936;2024-03-06T20:33:14;13.50;;;8.80;;
62475;SDS011;50739;45.670;11.936;2024-03-06T20:38:18;15.97;;;9.30;;
62475;SDS011;50739;45.670;11.936;2024-03-06T20:43:21;11.43;;;7.43;;
62475;SDS011;50739;45.670;11.936;2024-03-06T20:48:23;11.73;;;6.65;;
62475;SDS011;50739;45.670;11.936;2024-03-06T20:53:27;8.83;;;5.37;;
62475;SDS011;50739;45.670;11.936;2024-03-06T20:58:29;6.80;;;4.93;;
62475;SDS011;50739;45.670;11.936;2024-03-06T21:03:32;7.35;;;4.30;;
62475;SDS011;50739;45.670;11.936;2024-03-06T21:08:37;5.55;;;3.42;;
62475;SDS011;50739;45.670;11.936;2024-03-06T21:13:39;5.40;;;3.60;;
62475;SDS011;50739;45.670;11.936;2024-03-06T21:18:42;6.60;;;3.67;;
62475;SDS011;50739;45.670;11.936;2024-03-06T21:23:45;8.18;;;4.80;;
62475;SDS011;50739;45.670;11.936;2024-03-06T21:28:48;6.87;;;4.47;;
62475;SDS011;50739;45.670;11.936;2024-03-06T21:33:54;9.23;;;5.80;;
62475;SDS011;50739;45.670;11.936;2024-03-06T21:38:58;8.50;;;4.90;;
62475;SDS011;50739;45.670;11.936;2024-03-06T21:44:00;6.57;;;4.78;;
62475;SDS011;50739;45.670;11.936;2024-03-06T21:49:07;6.20;;;4.70;;
62475;SDS011;50739;45.670;11.936;2024-03-06T21:54:11;6.00;;;4.57;;
62475;SDS011;50739;45.670;11.936;2024-03-06T21:59:13;9.32;;;5.00;;
62475;SDS011;50739;45.670;11.936;2024-03-06T22:04:16;6.57;;;4.03;;
62475;SDS011;50739;45.670;11.936;2024-03-06T22:09:19;6.25;;;3.88;;
62475;SDS011;50739;45.670;11.936;2024-03-06T22:14:22;5.28;;;3.53;;
62475;SDS011;50739;45.670;11.936;2024-03-06T22:19:24;4.70;;;3.30;;
62475;SDS011;50739;45.670;11.936;2024-03-06T22:24:28;5.30;;;3.58;;
62475;SDS011;50739;45.670;11.936;2024-03-06T22:29:31;6.68;;;4.00;;
62475;SDS011;50739;45.670;11.936;2024-03-06T22:34:35;6.72;;;4.10;;
62475;SDS011;50739;45.670;11.936;2024-03-06T22:39:39;7.13;;;4.72;;
62475;SDS011;50739;45.670;11.936;2024-03-06T22:44:41;7.10;;;4.28;;
62475;SDS011;50739;45.670;11.936;2024-03-06T22:49:47;6.30;;;4.35;;
62475;SDS011;50739;45.670;11.936;2024-03-06T22:54:54;5.70;;;4.07;;
62475;SDS011;50739;45.670;11.936;2024-03-06T22:59:56;6.20;;;3.58;;
62475;SDS011;50739;45.670;11.936;2024-03-06T23:04:59;5.13;;;2.88;;
62475;SDS011;50739;45.670;11.936;2024-03-06T23:10:02;5.35;;;3.05;;
62475;SDS011;50739;45.670;11.936;2024-03-06T23:15:06;3.58;;;2.20;;
62475;SDS011;50739;45.670;11.936;2024-03-06T23:20:10;2.97;;;2.20;;
62475;SDS011;50739;45.670;11.936;2024-03-06T23:25:16;3.17;;;1.63;;
62475;SDS011;50739;45.670;11.936;2024-03-06T23:30:19;2.75;;;1.73;;
62475;SDS011;50739;45.670;11.936;2024-03-06T23:35:21;4.88;;;1.67;;
62475;SDS011;50739;45.670;11.936;2024-03-06T23:40:25;1.97;;;1.37;;
62475;SDS011;50739;45.670;11.936;2024-03-06T23:45:30;2.00;;;1.60;;
62475;SDS011;50739;45.670;11.936;2024-03-06T23:50:32;1.92;;;1.27;;
62475;SDS011;50739;45.670;11.936;2024-03-06T23:55:36;1.77;;;1.30;;
